sensor_id;sensor_type;location;lat;lon;timestamp;P1;durP1;ratioP1;P2;durP2;ratioP2
8060;SDS011;4073;42.626;25.386;2023-08-12T00:01:38;3.80;;;3.40;;
8060;SDS011;4073;42.626;25.386;2023-08-12T00:04:04;3.37;;;3.07;;
8060;SDS011;4073;42.626;25.386;2023-08-12T00:06:29;3.17;;;2.97;;
8060;SDS011;4073;42.626;25.386;2023-08-12T00:08:55;3.70;;;3.00;;
8060;SDS011;4073;42.626;25.386;2023-08-12T00:11:20;3.10;;;2.80;;
8060;SDS011;4073;42.626;25.386;2023-08-12T00:13:46;2.90;;;2.70;;
8060;SDS011;4073;42.626;25.386;2023-08-12T00:16:11;3.40;;;3.20;;
8060;SDS011;4073;42.626;25.386;2023-08-12T00:18:37;3.57;;;3.27;;
8060;SDS011;4073;42.626;25.386;2023-08-12T00:21:08;5.27;;;2.90;;
8060;SDS011;4073;42.626;25.386;2023-08-12T00:23:39;3.37;;;3.07;;
8060;SDS011;4073;42.626;25.386;2023-08-12T00:26:06;4.57;;;2.97;;
8060;SDS011;4073;42.626;25.386;2023-08-12T00:28:32;3.23;;;2.90;;
8060;SDS011;4073;42.626;25.386;2023-08-12T00:30:58;3.43;;;2.80;;
8060;SDS011;4073;42.626;25.386;2023-08-12T00:33:23;4.37;;;3.10;;
8060;SDS011;4073;42.626;25.386;2023-08-12T00:35:49;5.07;;;3.33;;
8060;SDS011;4073;42.626;25.386;2023-08-12T00:38:15;3.20;;;3.00;;
8060;SDS011;4073;42.626;25.386;2023-08-12T00:40:40;3.00;;;2.80;;
8060;SDS011;4073;42.626;25.386;2023-08-12T00:43:05;3.23;;;2.93;;
8060;SDS011;4073;42.626;25.386;2023-08-12T00:45:31;4.20;;;3.00;;
8060;SDS011;4073;42.626;25.386;2023-08-12T00:47:57;3.50;;;2.90;;
8060;SDS011;4073;42.626;25.386;2023-08-12T00:50:23;3.20;;;2.87;;
8060;SDS011;4073;42.626;25.386;2023-08-12T00:52:49;3.93;;;3.10;;
8060;SDS011;4073;42.626;25.386;2023-08-12T00:55:15;2.93;;;2.73;;
8060;SDS011;4073;42.626;25.386;2023-08-12T00:57:42;3.17;;;2.97;;
8060;SDS011;4073;42.626;25.386;2023-08-12T01:00:08;3.73;;;3.00;;
8060;SDS011;4073;42.626;25.386;2023-08-12T01:02:34;3.33;;;3.03;;
8060;SDS011;4073;42.626;25.386;2023-08-12T01:05:00;3.70;;;2.93;;
8060;SDS011;4073;42.626;25.386;2023-08-12T01:07:25;3.50;;;3.20;;
8060;SDS011;4073;42.626;25.386;2023-08-12T01:09:51;3.70;;;3.20;;
8060;SDS011;4073;42.626;25.386;2023-08-12T01:12:18;4.17;;;3.60;;
8060;SDS011;4073;42.626;25.386;2023-08-12T01:17:41;3.57;;;3.27;;
8060;SDS011;4073;42.626;25.386;2023-08-12T01:20:08;4.03;;;3.60;;
8060;SDS011;4073;42.626;25.386;2023-08-12T01:22:37;4.43;;;3.83;;
8060;SDS011;4073;42.626;25.386;2023-08-12T01:25:06;4.57;;;3.87;;
8060;SDS011;4073;42.626;25.386;2023-08-12T01:27:33;3.70;;;3.40;;
8060;SDS011;4073;42.626;25.386;2023-08-12T01:30:00;6.13;;;3.40;;
8060;SDS011;4073;42.626;25.386;2023-08-12T01:32:30;3.60;;;3.30;;
8060;SDS011;4073;42.626;25.386;2023-08-12T01:35:19;3.47;;;3.00;;
8060;SDS011;4073;42.626;25.386;2023-08-12T01:37:45;4.67;;;3.27;;
8060;SDS011;4073;42.626;25.386;2023-08-12T01:40:13;3.87;;;3.47;;
8060;SDS011;4073;42.626;25.386;2023-08-12T01:42:40;3.83;;;3.43;;
8060;SDS011;4073;42.626;25.386;2023-08-12T01:45:06;5.90;;;3.33;;
8060;SDS011;4073;42.626;25.386;2023-08-12T01:47:32;4.10;;;3.23;;
8060;SDS011;4073;42.626;25.386;2023-08-12T01:49:58;3.53;;;3.23;;
8060;SDS011;4073;42.626;25.386;2023-08-12T01:52:24;4.80;;;3.57;;
8060;SDS011;4073;42.626;25.386;2023-08-12T01:54:50;3.23;;;2.93;;
8060;SDS011;4073;42.626;25.386;2023-08-12T01:57:16;3.67;;;3.27;;
8060;SDS011;4073;42.626;25.386;2023-08-12T01:59:42;4.60;;;3.83;;
8060;SDS011;4073;42.626;25.386;2023-08-12T02:02:09;3.90;;;3.60;;
8060;SDS011;4073;42.626;25.386;2023-08-12T02:04:34;3.77;;;3.47;;
8060;SDS011;4073;42.626;25.386;2023-08-12T02:07:02;3.67;;;3.37;;
8060;SDS011;4073;42.626;25.386;2023-08-12T02:09:27;3.57;;;3.27;;
8060;SDS011;4073;42.626;25.386;2023-08-12T02:11:53;3.50;;;3.20;;
8060;SDS011;4073;42.626;25.386;2023-08-12T02:14:18;5.17;;;3.77;;
8060;SDS011;4073;42.626;25.386;2023-08-12T02:16:44;4.10;;;3.80;;
8060;SDS011;4073;42.626;25.386;2023-08-12T02:19:09;4.03;;;3.73;;
8060;SDS011;4073;42.626;25.386;2023-08-12T02:21:34;3.23;;;3.03;;
8060;SDS011;4073;42.626;25.386;2023-08-12T02:24:00;4.47;;;3.30;;
8060;SDS011;4073;42.626;25.386;2023-08-12T02:26:25;3.37;;;3.07;;
8060;SDS011;4073;42.626;25.386;2023-08-12T02:28:51;3.73;;;3.43;;
8060;SDS011;4073;42.626;25.386;2023-08-12T02:31:16;3.60;;;3.30;;
8060;SDS011;4073;42.626;25.386;2023-08-12T02:33:42;4.10;;;3.40;;
8060;SDS011;4073;42.626;25.386;2023-08-12T02:36:08;4.00;;;3.70;;
8060;SDS011;4073;42.626;25.386;2023-08-12T02:38:34;3.20;;;3.00;;
8060;SDS011;4073;42.626;25.386;2023-08-12T02:40:59;3.20;;;3.00;;
8060;SDS011;4073;42.626;25.386;2023-08-12T02:43:25;3.33;;;3.03;;
8060;SDS011;4073;42.626;25.386;2023-08-12T02:45:50;3.33;;;3.03;;
8060;SDS011;4073;42.626;25.386;2023-08-12T02:48:16;3.67;;;3.37;;
8060;SDS011;4073;42.626;25.386;2023-08-12T02:50:41;3.57;;;3.27;;
8060;SDS011;4073;42.626;25.386;2023-08-12T02:53:07;3.97;;;3.67;;
8060;SDS011;4073;42.626;25.386;2023-08-12T02:55:33;3.57;;;3.27;;
8060;SDS011;4073;42.626;25.386;2023-08-12T02:57:59;4.53;;;3.37;;
8060;SDS011;4073;42.626;25.386;2023-08-12T03:00:26;3.87;;;3.50;;
8060;SDS011;4073;42.626;25.386;2023-08-12T03:02:52;3.50;;;3.20;;
8060;SDS011;4073;42.626;25.386;2023-08-12T03:05:18;4.00;;;3.70;;
8060;SDS011;4073;42.626;25.386;2023-08-12T03:07:43;3.83;;;3.53;;
8060;SDS011;4073;42.626;25.386;2023-08-12T03:10:09;3.80;;;3.50;;
8060;SDS011;4073;42.626;25.386;2023-08-12T03:12:35;5.90;;;3.67;;
8060;SDS011;4073;42.626;25.386;2023-08-12T03:15:01;3.60;;;3.30;;
8060;SDS011;4073;42.626;25.386;2023-08-12T03:17:27;4.10;;;3.80;;
8060;SDS011;4073;42.626;25.386;2023-08-12T03:19:52;4.03;;;3.73;;
8060;SDS011;4073;42.626;25.386;2023-08-12T03:22:19;4.20;;;3.90;;
8060;SDS011;4073;42.626;25.386;2023-08-12T03:24:45;4.07;;;3.77;;
8060;SDS011;4073;42.626;25.386;2023-08-12T03:27:11;4.00;;;3.50;;
8060;SDS011;4073;42.626;25.386;2023-08-12T03:29:36;4.97;;;3.67;;
8060;SDS011;4073;42.626;25.386;2023-08-12T03:32:01;4.37;;;3.53;;
8060;SDS011;4073;42.626;25.386;2023-08-12T03:34:28;4.10;;;3.70;;
8060;SDS011;4073;42.626;25.386;2023-08-12T03:36:54;4.03;;;3.73;;
8060;SDS011;4073;42.626;25.386;2023-08-12T03:39:20;4.30;;;4.00;;
8060;SDS011;4073;42.626;25.386;2023-08-12T03:41:45;4.20;;;3.90;;
8060;SDS011;4073;42.626;25.386;2023-08-12T03:44:11;4.20;;;3.90;;
8060;SDS011;4073;42.626;25.386;2023-08-12T03:46:36;3.70;;;3.40;;
8060;SDS011;4073;42.626;25.386;2023-08-12T03:49:02;4.33;;;3.93;;
8060;SDS011;4073;42.626;25.386;2023-08-12T03:51:27;4.17;;;3.70;;
8060;SDS011;4073;42.626;25.386;2023-08-12T03:53:53;4.40;;;4.00;;
8060;SDS011;4073;42.626;25.386;2023-08-12T03:56:18;3.87;;;3.57;;
8060;SDS011;4073;42.626;25.386;2023-08-12T03:58:43;4.30;;;3.63;;
8060;SDS011;4073;42.626;25.386;2023-08-12T04:01:09;4.10;;;3.70;;
8060;SDS011;4073;42.626;25.386;2023-08-12T04:03:34;3.77;;;3.47;;
8060;SDS011;4073;42.626;25.386;2023-08-12T04:06:00;3.73;;;3.43;;
8060;SDS011;4073;42.626;25.386;2023-08-12T04:08:25;6.37;;;3.27;;
8060;SDS011;4073;42.626;25.386;2023-08-12T04:10:51;4.73;;;3.33;;
8060;SDS011;4073;42.626;25.386;2023-08-12T04:13:17;3.97;;;3.57;;
8060;SDS011;4073;42.626;25.386;2023-08-12T04:15:42;4.03;;;3.60;;
8060;SDS011;4073;42.626;25.386;2023-08-12T04:18:13;5.10;;;4.60;;
8060;SDS011;4073;42.626;25.386;2023-08-12T04:20:38;7.60;;;3.97;;
8060;SDS011;4073;42.626;25.386;2023-08-12T04:23:04;7.90;;;4.27;;
8060;SDS011;4073;42.626;25.386;2023-08-12T04:25:29;5.00;;;3.53;;
8060;SDS011;4073;42.626;25.386;2023-08-12T04:27:55;3.57;;;3.33;;
8060;SDS011;4073;42.626;25.386;2023-08-12T04:30:20;4.43;;;3.67;;
8060;SDS011;4073;42.626;25.386;2023-08-12T04:32:46;5.90;;;4.00;;
8060;SDS011;4073;42.626;25.386;2023-08-12T04:35:11;4.33;;;3.57;;
8060;SDS011;4073;42.626;25.386;2023-08-12T04:37:37;5.13;;;3.60;;
8060;SDS011;4073;42.626;25.386;2023-08-12T04:40:02;3.67;;;3.37;;
8060;SDS011;4073;42.626;25.386;2023-08-12T04:42:30;4.13;;;3.43;;
8060;SDS011;4073;42.626;25.386;2023-08-12T04:44:55;7.60;;;3.70;;
8060;SDS011;4073;42.626;25.386;2023-08-12T04:47:21;3.70;;;3.40;;
8060;SDS011;4073;42.626;25.386;2023-08-12T04:49:46;3.73;;;3.43;;
8060;SDS011;4073;42.626;25.386;2023-08-12T04:52:12;3.93;;;3.40;;
8060;SDS011;4073;42.626;25.386;2023-08-12T04:54:37;4.00;;;2.90;;
8060;SDS011;4073;42.626;25.386;2023-08-12T04:57:02;5.53;;;4.30;;
8060;SDS011;4073;42.626;25.386;2023-08-12T04:59:28;4.73;;;4.00;;
8060;SDS011;4073;42.626;25.386;2023-08-12T05:01:53;3.50;;;3.20;;
8060;SDS011;4073;42.626;25.386;2023-08-12T05:04:19;4.40;;;3.83;;
8060;SDS011;4073;42.626;25.386;2023-08-12T05:06:44;3.93;;;3.57;;
8060;SDS011;4073;42.626;25.386;2023-08-12T05:09:10;5.57;;;3.50;;
8060;SDS011;4073;42.626;25.386;2023-08-12T05:11:36;3.70;;;3.40;;
8060;SDS011;4073;42.626;25.386;2023-08-12T05:14:01;3.73;;;3.30;;
8060;SDS011;4073;42.626;25.386;2023-08-12T05:16:27;6.13;;;3.77;;
8060;SDS011;4073;42.626;25.386;2023-08-12T05:18:54;3.50;;;3.20;;
8060;SDS011;4073;42.626;25.386;2023-08-12T05:21:19;3.73;;;3.17;;
8060;SDS011;4073;42.626;25.386;2023-08-12T05:23:45;4.10;;;3.70;;
8060;SDS011;4073;42.626;25.386;2023-08-12T05:26:10;4.70;;;3.10;;
8060;SDS011;4073;42.626;25.386;2023-08-12T05:28:35;5.50;;;3.40;;
8060;SDS011;4073;42.626;25.386;2023-08-12T05:31:01;3.87;;;3.57;;
8060;SDS011;4073;42.626;25.386;2023-08-12T05:33:26;4.00;;;3.50;;
8060;SDS011;4073;42.626;25.386;2023-08-12T05:35:52;3.87;;;3.33;;
8060;SDS011;4073;42.626;25.386;2023-08-12T05:38:17;4.40;;;3.30;;
8060;SDS011;4073;42.626;25.386;2023-08-12T05:40:43;5.20;;;3.20;;
8060;SDS011;4073;42.626;25.386;2023-08-12T05:43:08;3.67;;;3.13;;
8060;SDS011;4073;42.626;25.386;2023-08-12T05:45:33;5.53;;;4.07;;
8060;SDS011;4073;42.626;25.386;2023-08-12T05:47:59;4.17;;;3.70;;
8060;SDS011;4073;42.626;25.386;2023-08-12T05:50:24;6.70;;;4.10;;
8060;SDS011;4073;42.626;25.386;2023-08-12T05:52:50;3.50;;;3.20;;
8060;SDS011;4073;42.626;25.386;2023-08-12T05:55:15;4.30;;;3.90;;
8060;SDS011;4073;42.626;25.386;2023-08-12T05:57:41;4.33;;;3.73;;
8060;SDS011;4073;42.626;25.386;2023-08-12T06:00:06;4.13;;;3.73;;
8060;SDS011;4073;42.626;25.386;2023-08-12T06:02:32;5.50;;;3.70;;
8060;SDS011;4073;42.626;25.386;2023-08-12T06:04:58;3.63;;;3.27;;
8060;SDS011;4073;42.626;25.386;2023-08-12T06:07:23;2.97;;;2.77;;
8060;SDS011;4073;42.626;25.386;2023-08-12T06:09:49;2.90;;;2.70;;
8060;SDS011;4073;42.626;25.386;2023-08-12T06:12:15;4.50;;;3.20;;
8060;SDS011;4073;42.626;25.386;2023-08-12T06:14:41;4.53;;;2.83;;
8060;SDS011;4073;42.626;25.386;2023-08-12T06:17:07;3.20;;;2.90;;
8060;SDS011;4073;42.626;25.386;2023-08-12T06:19:33;3.67;;;2.93;;
8060;SDS011;4073;42.626;25.386;2023-08-12T06:21:58;3.63;;;2.87;;
8060;SDS011;4073;42.626;25.386;2023-08-12T06:24:24;4.63;;;3.07;;
8060;SDS011;4073;42.626;25.386;2023-08-12T06:26:49;7.27;;;3.10;;
8060;SDS011;4073;42.626;25.386;2023-08-12T06:29:15;5.77;;;3.43;;
8060;SDS011;4073;42.626;25.386;2023-08-12T06:31:41;4.23;;;2.97;;
8060;SDS011;4073;42.626;25.386;2023-08-12T06:34:06;4.60;;;3.33;;
8060;SDS011;4073;42.626;25.386;2023-08-12T06:36:32;4.67;;;3.13;;
8060;SDS011;4073;42.626;25.386;2023-08-12T06:38:57;3.23;;;2.93;;
8060;SDS011;4073;42.626;25.386;2023-08-12T06:41:23;4.13;;;3.00;;
8060;SDS011;4073;42.626;25.386;2023-08-12T06:43:49;6.07;;;3.17;;
8060;SDS011;4073;42.626;25.386;2023-08-12T06:46:14;3.63;;;2.93;;
8060;SDS011;4073;42.626;25.386;2023-08-12T06:48:39;4.40;;;3.23;;
8060;SDS011;4073;42.626;25.386;2023-08-12T06:51:05;5.33;;;2.83;;
8060;SDS011;4073;42.626;25.386;2023-08-12T06:53:35;3.37;;;2.90;;
8060;SDS011;4073;42.626;25.386;2023-08-12T06:56:01;6.97;;;3.30;;
8060;SDS011;4073;42.626;25.386;2023-08-12T06:58:27;7.10;;;3.60;;
8060;SDS011;4073;42.626;25.386;2023-08-12T07:00:52;5.60;;;3.77;;
8060;SDS011;4073;42.626;25.386;2023-08-12T07:03:18;5.17;;;3.67;;
8060;SDS011;4073;42.626;25.386;2023-08-12T07:05:44;4.23;;;3.70;;
8060;SDS011;4073;42.626;25.386;2023-08-12T07:08:09;3.80;;;3.00;;
8060;SDS011;4073;42.626;25.386;2023-08-12T07:10:37;3.50;;;3.20;;
8060;SDS011;4073;42.626;25.386;2023-08-12T07:13:04;3.50;;;3.20;;
8060;SDS011;4073;42.626;25.386;2023-08-12T07:15:29;6.20;;;3.20;;
8060;SDS011;4073;42.626;25.386;2023-08-12T07:17:55;3.30;;;2.80;;
8060;SDS011;4073;42.626;25.386;2023-08-12T07:20:20;3.97;;;3.57;;
8060;SDS011;4073;42.626;25.386;2023-08-12T07:22:46;3.10;;;2.80;;
8060;SDS011;4073;42.626;25.386;2023-08-12T07:25:12;3.07;;;2.63;;
8060;SDS011;4073;42.626;25.386;2023-08-12T07:27:37;3.53;;;3.23;;
8060;SDS011;4073;42.626;25.386;2023-08-12T07:30:02;5.63;;;3.23;;
8060;SDS011;4073;42.626;25.386;2023-08-12T07:32:28;4.63;;;2.87;;
8060;SDS011;4073;42.626;25.386;2023-08-12T07:34:54;3.53;;;3.23;;
8060;SDS011;4073;42.626;25.386;2023-08-12T07:37:19;3.67;;;2.97;;
8060;SDS011;4073;42.626;25.386;2023-08-12T07:39:45;3.30;;;2.97;;
8060;SDS011;4073;42.626;25.386;2023-08-12T07:42:10;3.30;;;3.00;;
8060;SDS011;4073;42.626;25.386;2023-08-12T07:44:36;3.83;;;2.93;;
8060;SDS011;4073;42.626;25.386;2023-08-12T07:47:01;3.30;;;2.63;;
8060;SDS011;4073;42.626;25.386;2023-08-12T07:49:27;4.37;;;3.00;;
8060;SDS011;4073;42.626;25.386;2023-08-12T07:51:52;4.03;;;2.97;;
8060;SDS011;4073;42.626;25.386;2023-08-12T07:54:18;3.20;;;2.90;;
8060;SDS011;4073;42.626;25.386;2023-08-12T07:56:43;2.87;;;2.67;;
8060;SDS011;4073;42.626;25.386;2023-08-12T07:59:08;3.10;;;2.90;;
8060;SDS011;4073;42.626;25.386;2023-08-12T08:01:34;4.13;;;2.70;;
8060;SDS011;4073;42.626;25.386;2023-08-12T08:03:59;6.20;;;3.63;;
8060;SDS011;4073;42.626;25.386;2023-08-12T08:06:25;4.97;;;3.13;;
8060;SDS011;4073;42.626;25.386;2023-08-12T08:08:50;4.20;;;3.27;;
8060;SDS011;4073;42.626;25.386;2023-08-12T08:11:16;3.10;;;2.80;;
8060;SDS011;4073;42.626;25.386;2023-08-12T08:13:41;3.03;;;2.53;;
8060;SDS011;4073;42.626;25.386;2023-08-12T08:16:06;4.83;;;2.60;;
8060;SDS011;4073;42.626;25.386;2023-08-12T08:18:32;3.83;;;2.70;;
8060;SDS011;4073;42.626;25.386;2023-08-12T08:20:57;5.13;;;2.60;;
8060;SDS011;4073;42.626;25.386;2023-08-12T08:23:23;4.43;;;2.50;;
8060;SDS011;4073;42.626;25.386;2023-08-12T08:25:48;3.83;;;2.80;;
8060;SDS011;4073;42.626;25.386;2023-08-12T08:28:14;6.13;;;2.80;;
8060;SDS011;4073;42.626;25.386;2023-08-12T08:30:39;2.60;;;2.40;;
8060;SDS011;4073;42.626;25.386;2023-08-12T08:33:05;2.40;;;2.20;;
8060;SDS011;4073;42.626;25.386;2023-08-12T08:35:32;3.20;;;2.70;;
8060;SDS011;4073;42.626;25.386;2023-08-12T08:37:57;2.93;;;2.50;;
8060;SDS011;4073;42.626;25.386;2023-08-12T08:40:23;2.60;;;2.40;;
8060;SDS011;4073;42.626;25.386;2023-08-12T08:42:51;3.27;;;2.70;;
8060;SDS011;4073;42.626;25.386;2023-08-12T08:45:21;3.50;;;2.87;;
8060;SDS011;4073;42.626;25.386;2023-08-12T08:47:47;2.73;;;2.53;;
8060;SDS011;4073;42.626;25.386;2023-08-12T08:50:14;4.43;;;3.47;;
8060;SDS011;4073;42.626;25.386;2023-08-12T08:52:40;2.93;;;2.60;;
8060;SDS011;4073;42.626;25.386;2023-08-12T08:55:08;6.63;;;3.00;;
8060;SDS011;4073;42.626;25.386;2023-08-12T08:57:34;3.50;;;2.97;;
8060;SDS011;4073;42.626;25.386;2023-08-12T09:00:00;3.97;;;3.37;;
8060;SDS011;4073;42.626;25.386;2023-08-12T09:02:25;4.57;;;4.20;;
8060;SDS011;4073;42.626;25.386;2023-08-12T09:04:51;4.67;;;3.83;;
8060;SDS011;4073;42.626;25.386;2023-08-12T09:07:18;2.97;;;2.67;;
8060;SDS011;4073;42.626;25.386;2023-08-12T09:09:45;5.90;;;5.30;;
8060;SDS011;4073;42.626;25.386;2023-08-12T09:12:14;3.50;;;3.20;;
8060;SDS011;4073;42.626;25.386;2023-08-12T09:14:41;3.20;;;2.60;;
8060;SDS011;4073;42.626;25.386;2023-08-12T09:17:07;3.67;;;2.50;;
8060;SDS011;4073;42.626;25.386;2023-08-12T09:19:32;1.93;;;1.80;;
8060;SDS011;4073;42.626;25.386;2023-08-12T09:21:58;3.30;;;2.63;;
8060;SDS011;4073;42.626;25.386;2023-08-12T09:24:27;3.43;;;2.33;;
8060;SDS011;4073;42.626;25.386;2023-08-12T09:26:56;3.00;;;2.70;;
8060;SDS011;4073;42.626;25.386;2023-08-12T09:29:22;3.13;;;2.53;;
8060;SDS011;4073;42.626;25.386;2023-08-12T09:31:49;2.47;;;2.27;;
8060;SDS011;4073;42.626;25.386;2023-08-12T09:34:15;3.10;;;2.13;;
8060;SDS011;4073;42.626;25.386;2023-08-12T09:36:42;2.03;;;1.83;;
8060;SDS011;4073;42.626;25.386;2023-08-12T09:39:08;2.87;;;2.40;;
8060;SDS011;4073;42.626;25.386;2023-08-12T09:41:34;5.57;;;1.97;;
8060;SDS011;4073;42.626;25.386;2023-08-12T09:44:01;3.53;;;2.17;;
8060;SDS011;4073;42.626;25.386;2023-08-12T09:46:28;2.80;;;2.17;;
8060;SDS011;4073;42.626;25.386;2023-08-12T09:48:53;2.20;;;2.00;;
8060;SDS011;4073;42.626;25.386;2023-08-12T09:51:19;5.63;;;2.30;;
8060;SDS011;4073;42.626;25.386;2023-08-12T09:53:48;5.37;;;3.10;;
8060;SDS011;4073;42.626;25.386;2023-08-12T09:56:14;6.40;;;2.40;;
8060;SDS011;4073;42.626;25.386;2023-08-12T09:58:48;2.87;;;2.67;;
8060;SDS011;4073;42.626;25.386;2023-08-12T10:01:15;2.77;;;2.27;;
8060;SDS011;4073;42.626;25.386;2023-08-12T10:03:50;4.20;;;2.20;;
8060;SDS011;4073;42.626;25.386;2023-08-12T10:06:17;4.67;;;2.30;;
8060;SDS011;4073;42.626;25.386;2023-08-12T10:08:43;3.37;;;2.47;;
8060;SDS011;4073;42.626;25.386;2023-08-12T10:11:11;6.53;;;2.40;;
8060;SDS011;4073;42.626;25.386;2023-08-12T10:13:38;4.03;;;2.20;;
8060;SDS011;4073;42.626;25.386;2023-08-12T10:16:05;3.73;;;2.30;;
8060;SDS011;4073;42.626;25.386;2023-08-12T10:18:31;5.83;;;2.50;;
8060;SDS011;4073;42.626;25.386;2023-08-12T10:20:57;4.20;;;2.57;;
8060;SDS011;4073;42.626;25.386;2023-08-12T10:23:25;2.70;;;2.50;;
8060;SDS011;4073;42.626;25.386;2023-08-12T10:25:53;2.53;;;2.33;;
8060;SDS011;4073;42.626;25.386;2023-08-12T10:28:19;4.97;;;2.80;;
8060;SDS011;4073;42.626;25.386;2023-08-12T10:30:45;3.10;;;2.20;;
8060;SDS011;4073;42.626;25.386;2023-08-12T10:33:11;3.97;;;2.20;;
8060;SDS011;4073;42.626;25.386;2023-08-12T10:35:45;2.27;;;2.07;;
8060;SDS011;4073;42.626;25.386;2023-08-12T10:38:20;2.47;;;2.27;;
8060;SDS011;4073;42.626;25.386;2023-08-12T10:40:46;2.63;;;2.13;;
8060;SDS011;4073;42.626;25.386;2023-08-12T10:43:12;2.90;;;2.10;;
8060;SDS011;4073;42.626;25.386;2023-08-12T10:45:42;5.20;;;2.60;;
8060;SDS011;4073;42.626;25.386;2023-08-12T10:48:24;3.60;;;2.50;;
8060;SDS011;4073;42.626;25.386;2023-08-12T10:50:58;4.13;;;2.23;;
8060;SDS011;4073;42.626;25.386;2023-08-12T10:53:28;2.87;;;2.10;;
8060;SDS011;4073;42.626;25.386;2023-08-12T10:56:01;2.40;;;1.90;;
8060;SDS011;4073;42.626;25.386;2023-08-12T10:58:35;3.40;;;2.70;;
8060;SDS011;4073;42.626;25.386;2023-08-12T11:01:11;3.53;;;2.30;;
8060;SDS011;4073;42.626;25.386;2023-08-12T11:03:44;4.67;;;2.57;;
8060;SDS011;4073;42.626;25.386;2023-08-12T11:06:10;2.90;;;2.60;;
8060;SDS011;4073;42.626;25.386;2023-08-12T11:08:36;3.10;;;2.20;;
8060;SDS011;4073;42.626;25.386;2023-08-12T11:11:18;3.03;;;1.83;;
8060;SDS011;4073;42.626;25.386;2023-08-12T11:14:11;2.50;;;1.97;;
8060;SDS011;4073;42.626;25.386;2023-08-12T11:16:39;2.40;;;2.07;;
8060;SDS011;4073;42.626;25.386;2023-08-12T11:19:08;2.60;;;2.40;;
8060;SDS011;4073;42.626;25.386;2023-08-12T11:21:35;4.87;;;2.43;;
8060;SDS011;4073;42.626;25.386;2023-08-12T11:24:01;2.40;;;2.20;;
8060;SDS011;4073;42.626;25.386;2023-08-12T11:26:27;3.20;;;2.90;;
8060;SDS011;4073;42.626;25.386;2023-08-12T11:28:53;5.73;;;2.80;;
8060;SDS011;4073;42.626;25.386;2023-08-12T11:31:18;3.77;;;2.40;;
8060;SDS011;4073;42.626;25.386;2023-08-12T11:33:44;2.60;;;1.90;;
8060;SDS011;4073;42.626;25.386;2023-08-12T11:36:10;2.03;;;1.83;;
8060;SDS011;4073;42.626;25.386;2023-08-12T11:38:35;3.53;;;2.20;;
8060;SDS011;4073;42.626;25.386;2023-08-12T11:41:02;2.70;;;2.00;;
8060;SDS011;4073;42.626;25.386;2023-08-12T11:43:28;2.73;;;1.97;;
8060;SDS011;4073;42.626;25.386;2023-08-12T11:45:55;5.77;;;2.47;;
8060;SDS011;4073;42.626;25.386;2023-08-12T11:48:21;2.37;;;2.10;;
8060;SDS011;4073;42.626;25.386;2023-08-12T11:50:46;2.30;;;2.07;;
8060;SDS011;4073;42.626;25.386;2023-08-12T11:53:12;5.70;;;2.03;;
8060;SDS011;4073;42.626;25.386;2023-08-12T11:55:37;2.60;;;2.00;;
8060;SDS011;4073;42.626;25.386;2023-08-12T11:58:04;3.33;;;2.53;;
8060;SDS011;4073;42.626;25.386;2023-08-12T12:00:30;2.03;;;1.83;;
8060;SDS011;4073;42.626;25.386;2023-08-12T12:02:58;2.90;;;2.20;;
8060;SDS011;4073;42.626;25.386;2023-08-12T12:05:27;2.30;;;2.10;;
8060;SDS011;4073;42.626;25.386;2023-08-12T12:07:55;2.17;;;2.03;;
8060;SDS011;4073;42.626;25.386;2023-08-12T12:10:21;3.10;;;2.00;;
8060;SDS011;4073;42.626;25.386;2023-08-12T12:12:52;2.57;;;2.37;;
8060;SDS011;4073;42.626;25.386;2023-08-12T12:15:19;2.50;;;2.30;;
8060;SDS011;4073;42.626;25.386;2023-08-12T12:17:46;3.40;;;2.00;;
8060;SDS011;4073;42.626;25.386;2023-08-12T12:20:12;2.53;;;1.87;;
8060;SDS011;4073;42.626;25.386;2023-08-12T12:22:40;3.83;;;2.00;;
8060;SDS011;4073;42.626;25.386;2023-08-12T12:25:09;2.03;;;1.93;;
8060;SDS011;4073;42.626;25.386;2023-08-12T12:27:39;2.50;;;2.30;;
8060;SDS011;4073;42.626;25.386;2023-08-12T12:30:12;4.13;;;2.03;;
8060;SDS011;4073;42.626;25.386;2023-08-12T12:32:38;2.20;;;2.00;;
8060;SDS011;4073;42.626;25.386;2023-08-12T12:35:05;2.07;;;1.90;;
8060;SDS011;4073;42.626;25.386;2023-08-12T12:37:34;2.37;;;2.17;;
8060;SDS011;4073;42.626;25.386;2023-08-12T12:40:01;2.57;;;1.93;;
8060;SDS011;4073;42.626;25.386;2023-08-12T12:42:28;2.70;;;2.00;;
8060;SDS011;4073;42.626;25.386;2023-08-12T12:44:53;3.40;;;2.70;;
8060;SDS011;4073;42.626;25.386;2023-08-12T12:47:19;1.93;;;1.80;;
8060;SDS011;4073;42.626;25.386;2023-08-12T12:49:45;1.90;;;1.80;;
8060;SDS011;4073;42.626;25.386;2023-08-12T12:52:10;2.40;;;2.20;;
8060;SDS011;4073;42.626;25.386;2023-08-12T12:54:36;2.73;;;1.90;;
8060;SDS011;4073;42.626;25.386;2023-08-12T12:57:02;2.93;;;2.47;;
8060;SDS011;4073;42.626;25.386;2023-08-12T12:59:29;2.43;;;2.23;;
8060;SDS011;4073;42.626;25.386;2023-08-12T13:01:54;2.47;;;2.07;;
8060;SDS011;4073;42.626;25.386;2023-08-12T13:04:20;2.30;;;2.10;;
8060;SDS011;4073;42.626;25.386;2023-08-12T13:06:45;2.57;;;2.33;;
8060;SDS011;4073;42.626;25.386;2023-08-12T13:09:11;2.37;;;2.17;;
8060;SDS011;4073;42.626;25.386;2023-08-12T13:11:37;2.30;;;2.10;;
8060;SDS011;4073;42.626;25.386;2023-08-12T13:14:02;3.07;;;1.93;;
8060;SDS011;4073;42.626;25.386;2023-08-12T13:16:28;3.23;;;2.17;;
8060;SDS011;4073;42.626;25.386;2023-08-12T13:18:55;2.30;;;2.10;;
8060;SDS011;4073;42.626;25.386;2023-08-12T13:21:23;2.90;;;2.60;;
8060;SDS011;4073;42.626;25.386;2023-08-12T13:23:49;4.07;;;2.63;;
8060;SDS011;4073;42.626;25.386;2023-08-12T13:26:14;3.10;;;2.10;;
8060;SDS011;4073;42.626;25.386;2023-08-12T13:28:40;2.63;;;1.90;;
8060;SDS011;4073;42.626;25.386;2023-08-12T13:31:05;2.20;;;2.00;;
8060;SDS011;4073;42.626;25.386;2023-08-12T13:33:31;3.77;;;1.97;;
8060;SDS011;4073;42.626;25.386;2023-08-12T13:35:56;3.33;;;2.40;;
8060;SDS011;4073;42.626;25.386;2023-08-12T13:38:22;4.57;;;2.10;;
8060;SDS011;4073;42.626;25.386;2023-08-12T13:40:47;1.97;;;1.80;;
8060;SDS011;4073;42.626;25.386;2023-08-12T13:43:13;3.30;;;2.23;;
8060;SDS011;4073;42.626;25.386;2023-08-12T13:45:39;5.23;;;2.57;;
8060;SDS011;4073;42.626;25.386;2023-08-12T13:48:04;2.63;;;2.00;;
8060;SDS011;4073;42.626;25.386;2023-08-12T13:50:30;2.40;;;2.00;;
8060;SDS011;4073;42.626;25.386;2023-08-12T13:52:57;2.20;;;2.00;;
8060;SDS011;4073;42.626;25.386;2023-08-12T13:55:23;2.47;;;2.27;;
8060;SDS011;4073;42.626;25.386;2023-08-12T13:57:49;2.30;;;2.10;;
8060;SDS011;4073;42.626;25.386;2023-08-12T14:00:14;2.53;;;2.33;;
8060;SDS011;4073;42.626;25.386;2023-08-12T14:02:40;3.00;;;2.30;;
8060;SDS011;4073;42.626;25.386;2023-08-12T14:05:06;3.50;;;2.20;;
8060;SDS011;4073;42.626;25.386;2023-08-12T14:07:32;2.93;;;2.63;;
8060;SDS011;4073;42.626;25.386;2023-08-12T14:09:58;2.57;;;2.20;;
8060;SDS011;4073;42.626;25.386;2023-08-12T14:12:24;3.23;;;2.20;;
8060;SDS011;4073;42.626;25.386;2023-08-12T14:14:49;2.97;;;2.23;;
8060;SDS011;4073;42.626;25.386;2023-08-12T14:17:15;2.40;;;2.20;;
8060;SDS011;4073;42.626;25.386;2023-08-12T14:19:43;2.43;;;2.23;;
8060;SDS011;4073;42.626;25.386;2023-08-12T14:22:09;4.93;;;2.40;;
8060;SDS011;4073;42.626;25.386;2023-08-12T14:24:35;3.13;;;2.30;;
8060;SDS011;4073;42.626;25.386;2023-08-12T14:27:00;2.70;;;2.20;;
8060;SDS011;4073;42.626;25.386;2023-08-12T14:29:26;2.57;;;2.37;;
8060;SDS011;4073;42.626;25.386;2023-08-12T14:31:52;3.17;;;2.10;;
8060;SDS011;4073;42.626;25.386;2023-08-12T14:34:17;2.07;;;1.97;;
8060;SDS011;4073;42.626;25.386;2023-08-12T14:36:43;2.83;;;2.27;;
8060;SDS011;4073;42.626;25.386;2023-08-12T14:39:08;4.30;;;2.20;;
8060;SDS011;4073;42.626;25.386;2023-08-12T14:41:34;2.90;;;2.30;;
8060;SDS011;4073;42.626;25.386;2023-08-12T14:43:59;2.83;;;2.37;;
8060;SDS011;4073;42.626;25.386;2023-08-12T14:46:24;3.47;;;2.60;;
8060;SDS011;4073;42.626;25.386;2023-08-12T14:48:50;2.67;;;2.37;;
8060;SDS011;4073;42.626;25.386;2023-08-12T14:51:18;5.27;;;2.37;;
8060;SDS011;4073;42.626;25.386;2023-08-12T14:53:44;4.67;;;2.70;;
8060;SDS011;4073;42.626;25.386;2023-08-12T14:56:09;4.47;;;2.20;;
8060;SDS011;4073;42.626;25.386;2023-08-12T14:58:34;2.80;;;2.30;;